KCRE/CRE METAR and TAF weather

Enter ICAO airport designator
Station Type Date Time Source
KCRE METAR 2019/05/26 22:53 UTC NOAA

KCRE 262253Z 21011KT 10SM CLR 29/24 A2998 RMK AO1 SLP153 T02940244


Station Type Date Time Source
KCRE Decoded METAR 2019/05/26 22:53 UTC NOAA

N. MYRTLE BCH.GRAND STRAND, SC, United States (KCRE) 33-49N 078-43W 10M
May 26, 2019 - 06:53 PM EDT / 2019.05.26 2253 UTC
Wind: from the SSW (210 degrees) at 13 MPH (11 KT):0
Visibility: 10 mile(s):0
Sky conditions: clear
Temperature: 84.9 F (29.4 C)
Dew Point: 75.9 F (24.4 C)
Relative Humidity: 74%
Pressure (altimeter): 29.98 in. Hg (1015 hPa)
ob: KCRE 262253Z 21011KT 10SM CLR 29/24 A2998 RMK AO1 SLP153 T02940244
cycle: 23

Station Type Date Time Source
KCRE TAF 2019/05/26 18:22 UTC NOAA

TAF KCRE 261720Z 2618/2718 21010KT P6SM SKC
FM270400 24003KT P6SM SKC
FM271400 32007KT P6SM SCT250

Example: see airport list